Time;durP1;ratioP1;P1;durP2;ratioP2;P2;SDS_P1;SDS_P2;PMS_P1;PMS_P2;Temp;Humidity;BMP_temperature;BMP_pressure;BME280_temperature;BME280_humidity;BME280_pressure;Samples;Min_cycle;Max_cycle;Signal;HPM_P1;HPM_P2
2021/12/28 00:01:02;;;;;;;31.03;20.10;;;5.00;99.90;;;;;;5022036;28;20563;-70
2021/12/28 00:03:28;;;;;;;34.58;21.05;;;5.00;99.90;;;;;;5036953;28;20135;-70
2021/12/28 00:05:56;;;;;;;35.05;20.23;;;5.10;99.90;;;;;;5036110;28;20084;-68
2021/12/28 00:08:22;;;;;;;30.45;18.88;;;5.00;99.90;;;;;;5037086;28;20515;-68
2021/12/28 00:10:48;;;;;;;28.42;18.88;;;5.20;99.90;;;;;;5019822;28;20182;-70
2021/12/28 00:13:16;;;;;;;31.38;19.27;;;5.10;99.90;;;;;;5037159;28;20049;-68
2021/12/28 00:18:37;;;;;;;33.08;20.63;;;5.00;99.90;;;;;;5018247;28;20053;-69
2021/12/28 00:21:06;;;;;;;32.28;20.15;;;5.00;99.90;;;;;;5035945;28;20057;-70
2021/12/28 00:23:40;;;;;;;28.92;18.42;;;5.00;99.90;;;;;;5037346;28;20408;-70
2021/12/28 00:26:09;;;;;;;36.03;20.45;;;5.00;99.90;;;;;;5036600;28;20057;-70
2021/12/28 00:28:35;;;;;;;32.72;20.02;;;4.90;99.90;;;;;;5036821;28;20136;-70
2021/12/28 00:31:02;;;;;;;31.95;19.35;;;5.00;99.90;;;;;;5036065;28;20056;-70
2021/12/28 00:33:27;;;;;;;34.53;21.65;;;5.00;99.90;;;;;;5036379;28;20119;-69
2021/12/28 00:35:53;;;;;;;39.15;21.60;;;5.00;99.90;;;;;;5036333;28;20776;-69
2021/12/28 00:38:25;;;;;;;32.20;19.52;;;5.00;99.90;;;;;;5036599;28;20053;-70
2021/12/28 00:40:58;;;;;;;39.47;21.60;;;4.90;99.90;;;;;;5036275;28;20056;-68
2021/12/28 00:43:24;;;;;;;;;;;5.00;99.90;;;;;;5035877;28;20060;-68
2021/12/28 00:45:50;;;;;;;34.70;20.15;;;4.90;99.90;;;;;;5035319;28;19927;-69
2021/12/28 00:48:16;;;;;;;40.95;21.52;;;4.90;99.90;;;;;;5036115;28;20053;-69
2021/12/28 00:50:45;;;;;;;44.55;22.95;;;5.00;99.90;;;;;;5036070;28;20160;-70
2021/12/28 00:53:11;;;;;;;50.05;24.00;;;5.00;99.90;;;;;;5019566;28;20501;-70
2021/12/28 00:55:37;;;;;;;48.92;23.38;;;5.00;99.90;;;;;;5035788;28;20049;-69
2021/12/28 00:58:04;;;;;;;34.97;21.30;;;4.90;99.90;;;;;;5035804;28;20076;-69
2021/12/28 01:00:35;;;;;;;39.97;21.77;;;4.90;99.90;;;;;;5035708;28;20041;-70
2021/12/28 01:03:03;;;;;;;37.42;20.67;;;5.00;99.90;;;;;;5030900;28;20057;-70
2021/12/28 01:05:30;;;;;;;40.60;23.30;;;4.90;99.90;;;;;;5002230;28;20108;-71
2021/12/28 01:07:56;;;;;;;47.10;23.27;;;5.00;99.90;;;;;;5035798;28;20507;-71
2021/12/28 01:10:27;;;;;;;56.22;24.70;;;5.00;99.90;;;;;;5035738;28;20154;-69
2021/12/28 01:12:55;;;;;;;43.65;22.85;;;5.00;99.90;;;;;;5035693;28;20059;-69
2021/12/28 01:15:23;;;;;;;63.58;26.67;;;5.00;99.90;;;;;;5034988;28;20083;-69
2021/12/28 01:17:49;;;;;;;68.80;28.63;;;5.10;99.90;;;;;;5035129;28;20045;-68
2021/12/28 01:20:15;;;;;;;54.53;25.50;;;5.10;99.90;;;;;;5035746;28;20060;-69
2021/12/28 01:22:42;;;;;;;62.97;27.05;;;5.10;99.90;;;;;;5035716;28;20137;-68
2021/12/28 01:25:09;;;;;;;67.63;27.80;;;5.10;99.90;;;;;;5035633;28;20041;-70
2021/12/28 01:27:34;;;;;;;57.15;26.80;;;5.10;99.90;;;;;;5035404;28;20052;-69
2021/12/28 01:30:00;;;;;;;76.72;28.90;;;5.10;99.90;;;;;;5035031;28;20048;-68
2021/12/28 01:32:26;;;;;;;104.28;31.83;;;5.10;99.90;;;;;;5034478;28;20044;-69
2021/12/28 01:34:52;;;;;;;92.85;29.92;;;5.10;99.90;;;;;;5051795;28;20072;-71
2021/12/28 01:37:18;;;;;;;68.55;28.67;;;5.20;99.90;;;;;;5052906;28;20081;-68
2021/12/28 01:39:44;;;;;;;83.30;30.48;;;5.20;99.90;;;;;;5035092;28;20084;-70
2021/12/28 01:42:09;;;;;;;115.93;30.75;;;5.20;99.90;;;;;;5034871;28;20056;-69
2021/12/28 01:44:36;;;;;;;98.00;28.02;;;5.20;99.90;;;;;;5052036;28;20037;-69
2021/12/28 01:47:02;;;;;;;109.90;29.40;;;5.20;99.90;;;;;;5034183;28;20142;-70
2021/12/28 01:49:28;;;;;;;82.93;27.95;;;5.20;99.90;;;;;;5035177;28;20049;-70
2021/12/28 01:51:54;;;;;;;72.32;28.42;;;5.10;99.90;;;;;;5035241;28;20485;-68
2021/12/28 01:54:20;;;;;;;72.05;26.80;;;5.20;99.90;;;;;;5034767;28;20051;-70
2021/12/28 01:56:50;;;;;;;99.38;30.10;;;5.20;99.90;;;;;;5034519;28;20053;-69
2021/12/28 01:59:20;;;;;;;94.68;31.55;;;5.20;99.90;;;;;;5034513;28;20064;-71
2021/12/28 02:01:47;;;;;;;147.50;34.70;;;5.30;99.90;;;;;;5033572;28;20055;-72
2021/12/28 02:04:19;;;;;;;684.20;64.40;;;5.20;99.90;;;;;;5015295;28;20476;-69
2021/12/28 02:06:45;;;;;;;120.50;30.95;;;5.30;99.90;;;;;;5034642;28;20044;-68
2021/12/28 02:09:11;;;;;;;116.55;34.03;;;5.20;99.90;;;;;;5034583;28;20045;-70
2021/12/28 02:11:37;;;;;;;188.55;35.47;;;5.30;99.90;;;;;;5034666;28;20060;-68
2021/12/28 02:14:06;;;;;;;168.18;33.15;;;5.30;99.90;;;;;;5018591;28;20448;-69
2021/12/28 02:16:34;;;;;;;101.35;32.08;;;5.30;99.90;;;;;;5033772;28;20041;-69
2021/12/28 02:19:02;;;;;;;135.10;36.05;;;5.30;99.90;;;;;;5034664;28;20048;-69
2021/12/28 02:21:31;;;;;;;179.20;36.88;;;5.30;99.90;;;;;;5018342;28;20443;-71
2021/12/28 02:24:01;;;;;;;139.23;35.80;;;5.30;99.90;;;;;;5018034;28;20052;-70
2021/12/28 02:26:27;;;;;;;331.77;48.97;;;5.40;99.90;;;;;;5034510;28;20125;-70
2021/12/28 02:28:56;;;;;;;172.55;37.70;;;5.40;99.90;;;;;;5051060;28;20120;-69
2021/12/28 02:31:26;;;;;;;169.68;36.63;;;5.40;99.90;;;;;;5015644;28;20488;-69
2021/12/28 02:33:52;;;;;;;128.63;34.70;;;5.40;99.90;;;;;;5016908;28;20171;-70
2021/12/28 02:36:19;;;;;;;256.20;45.22;;;5.50;99.90;;;;;;5034339;28;20076;-68
2021/12/28 02:38:46;;;;;;;248.65;42.60;;;5.50;99.90;;;;;;5017691;28;20114;-70
2021/12/28 02:41:12;;;;;;;159.43;37.42;;;5.60;99.90;;;;;;5033757;28;20052;-70
2021/12/28 02:43:40;;;;;;;178.05;38.15;;;5.50;99.90;;;;;;5017895;28;20049;-72
2021/12/28 02:46:08;;;;;;;186.65;38.90;;;5.50;99.90;;;;;;5033200;28;20055;-70
2021/12/28 02:48:35;;;;;;;123.68;36.33;;;5.50;99.90;;;;;;5035056;28;20049;-70
2021/12/28 02:51:13;;;;;;;142.23;38.55;;;5.60;99.90;;;;;;5033540;28;20033;-69
2021/12/28 02:53:39;;;;;;;160.70;39.85;;;5.60;99.90;;;;;;5034770;28;20107;-69
2021/12/28 02:56:08;;;;;;;148.90;38.17;;;5.60;99.90;;;;;;5017292;28;20045;-69
2021/12/28 02:58:40;;;;;;;124.18;38.53;;;5.60;99.90;;;;;;5034730;28;20444;-69
2021/12/28 03:01:14;;;;;;;116.32;33.65;;;5.70;99.90;;;;;;5031758;28;20120;-69
2021/12/28 03:03:41;;;;;;;107.18;33.92;;;5.70;99.90;;;;;;5034402;28;20409;-69
2021/12/28 03:06:09;;;;;;;134.80;38.97;;;5.70;99.90;;;;;;5034354;28;20065;-68
2021/12/28 03:08:40;;;;;;;131.88;38.30;;;5.80;99.90;;;;;;5035723;28;20056;-70
2021/12/28 03:11:08;;;;;;;125.07;36.85;;;5.80;99.90;;;;;;5022997;28;20064;-70
2021/12/28 03:13:46;;;;;;;118.65;36.50;;;5.90;99.90;;;;;;5038929;28;20041;-71
2021/12/28 03:16:15;;;;;;;108.57;33.67;;;5.90;99.90;;;;;;5037776;28;20068;-70
2021/12/28 03:18:41;;;;;;;106.28;34.45;;;5.90;99.90;;;;;;5038028;28;20486;-69
2021/12/28 03:21:09;;;;;;;126.53;37.25;;;5.90;99.90;;;;;;5037535;28;20098;-72
2021/12/28 03:23:36;;;;;;;127.70;36.53;;;6.00;99.90;;;;;;5037509;28;20053;-69
2021/12/28 03:26:05;;;;;;;113.20;35.58;;;6.00;99.90;;;;;;5037901;28;20107;-69
2021/12/28 03:28:34;;;;;;;146.38;37.78;;;6.00;99.90;;;;;;5037405;28;20064;-69
2021/12/28 03:31:04;;;;;;;125.50;35.67;;;5.90;99.90;;;;;;5035567;28;20053;-69
2021/12/28 03:33:32;;;;;;;112.72;35.17;;;6.10;99.90;;;;;;5037239;28;20049;-68
2021/12/28 03:35:58;;;;;;;102.43;33.30;;;6.20;99.90;;;;;;5037371;28;20092;-70
2021/12/28 03:38:24;;;;;;;112.13;36.40;;;6.10;99.90;;;;;;5037725;28;20084;-70
2021/12/28 03:40:50;;;;;;;104.55;34.63;;;6.10;99.90;;;;;;5036990;28;20127;-69
2021/12/28 03:43:17;;;;;;;109.15;35.53;;;6.10;99.90;;;;;;5037081;28;20064;-70
2021/12/28 03:45:47;;;;;;;110.03;32.42;;;6.10;99.90;;;;;;5053280;28;20132;-72
2021/12/28 03:48:13;;;;;;;111.05;34.50;;;6.10;99.90;;;;;;5037552;28;20128;-70
2021/12/28 03:50:39;;;;;;;102.22;33.85;;;6.10;99.90;;;;;;5036482;28;20049;-70
2021/12/28 03:53:06;;;;;;;110.13;35.60;;;6.10;99.90;;;;;;5037377;28;20059;-71
2021/12/28 03:55:33;;;;;;;107.30;34.20;;;6.10;99.90;;;;;;5037151;28;20053;-71
2021/12/28 03:58:03;;;;;;;103.85;34.22;;;6.10;99.90;;;;;;5037016;28;20110;-69
2021/12/28 04:00:33;;;;;;;104.60;33.03;;;6.10;99.90;;;;;;5032104;28;20077;-71
2021/12/28 04:02:59;;;;;;;103.90;33.67;;;6.10;99.90;;;;;;5016787;28;20068;-70
2021/12/28 04:05:25;;;;;;;113.40;36.40;;;6.10;99.90;;;;;;5017727;28;20061;-71
2021/12/28 04:07:50;;;;;;;115.50;34.15;;;6.00;99.90;;;;;;5034879;28;20073;-71
2021/12/28 04:10:17;;;;;;;121.20;37.08;;;6.00;99.90;;;;;;5053909;28;20477;-68
2021/12/28 04:12:43;;;;;;;111.25;35.63;;;6.00;99.90;;;;;;5036897;28;20123;-70
2021/12/28 04:15:11;;;;;;;118.35;37.25;;;5.90;99.90;;;;;;5036247;28;20045;-70
2021/12/28 04:17:39;;;;;;;132.60;36.90;;;5.90;99.90;;;;;;5035464;28;20053;-68
2021/12/28 04:20:12;;;;;;;114.28;34.65;;;5.90;99.90;;;;;;5046228;28;20438;-68
2021/12/28 04:22:39;;;;;;;148.38;38.88;;;5.90;99.90;;;;;;5020174;28;20049;-68
2021/12/28 04:25:06;;;;;;;178.65;42.45;;;5.90;99.90;;;;;;5020596;28;20076;-70
2021/12/28 04:27:32;;;;;;;181.32;40.10;;;5.90;99.90;;;;;;5036126;28;20509;-68
2021/12/28 04:29:58;;;;;;;213.68;38.90;;;5.90;99.90;;;;;;5020141;28;20104;-68
2021/12/28 04:32:24;;;;;;;123.05;33.45;;;5.80;99.90;;;;;;5035319;28;20540;-69
2021/12/28 04:34:52;;;;;;;169.48;38.38;;;5.80;99.90;;;;;;5054400;28;20053;-68
2021/12/28 04:37:20;;;;;;;156.80;37.45;;;5.80;99.90;;;;;;5036064;28;20049;-68
2021/12/28 04:39:46;;;;;;;159.35;38.10;;;5.80;99.90;;;;;;5035980;28;20060;-70
2021/12/28 04:42:12;;;;;;;124.30;34.10;;;5.80;99.90;;;;;;5036434;28;20057;-69
2021/12/28 04:44:37;;;;;;;118.65;32.53;;;5.70;99.90;;;;;;5035970;28;20080;-70
2021/12/28 04:47:03;;;;;;;143.32;34.80;;;5.70;99.90;;;;;;5041764;28;20045;-70
2021/12/28 04:49:29;;;;;;;104.32;28.83;;;5.90;99.90;;;;;;5041504;28;20056;-69
2021/12/28 04:51:55;;;;;;;108.53;31.75;;;5.70;99.90;;;;;;5019357;28;20057;-70
2021/12/28 04:54:22;;;;;;;137.75;35.05;;;5.60;99.90;;;;;;5036145;28;20479;-70
2021/12/28 04:56:51;;;;;;;105.47;32.72;;;5.60;99.90;;;;;;5035987;28;20049;-70
2021/12/28 04:59:17;;;;;;;116.07;32.30;;;5.60;99.90;;;;;;5035643;28;20053;-70
2021/12/28 05:01:46;;;;;;;116.45;30.92;;;5.70;99.90;;;;;;5016446;28;20129;-69
2021/12/28 05:04:11;;;;;;;106.18;30.98;;;5.60;99.90;;;;;;4999753;28;20049;-69
2021/12/28 05:06:37;;;;;;;96.97;31.08;;;5.60;99.90;;;;;;5016066;28;20060;-70
2021/12/28 05:09:05;;;;;;;93.38;29.48;;;5.60;99.90;;;;;;5042053;28;20469;-71
2021/12/28 05:11:32;;;;;;;92.10;29.23;;;5.60;99.90;;;;;;5035805;28;20469;-71
2021/12/28 05:13:57;;;;;;;93.68;30.10;;;5.60;99.90;;;;;;5035825;28;20052;-69
2021/12/28 05:16:28;;;;;;;87.72;29.40;;;5.60;99.90;;;;;;5018296;28;20045;-71
2021/12/28 05:18:54;;;;;;;94.65;29.10;;;5.60;99.90;;;;;;5035424;28;20049;-70
2021/12/28 05:21:19;;;;;;;93.88;29.85;;;5.60;99.90;;;;;;5029348;28;20405;-69
2021/12/28 05:23:45;;;;;;;87.10;28.98;;;5.60;99.90;;;;;;5016677;28;20136;-70
2021/12/28 05:26:10;;;;;;;91.25;27.08;;;5.60;99.90;;;;;;5015441;28;20146;-70
2021/12/28 05:28:36;;;;;;;85.20;28.05;;;5.60;99.90;;;;;;5004513;28;20215;-70
2021/12/28 05:31:02;;;;;;;73.07;29.10;;;5.60;99.90;;;;;;5034338;28;20048;-70
2021/12/28 05:33:27;;;;;;;74.65;27.15;;;5.60;99.90;;;;;;5035661;28;20131;-70
2021/12/28 05:35:53;;;;;;;71.95;27.27;;;5.60;99.90;;;;;;5035006;28;20617;-69
2021/12/28 05:38:18;;;;;;;84.18;28.55;;;5.70;99.90;;;;;;5031107;28;20049;-71
2021/12/28 05:40:44;;;;;;;83.60;28.70;;;5.60;99.90;;;;;;5035107;28;20056;-70
2021/12/28 05:43:09;;;;;;;83.00;28.40;;;5.60;99.90;;;;;;5035207;28;20056;-70
2021/12/28 05:45:35;;;;;;;85.60;28.15;;;5.60;99.90;;;;;;5034720;28;20132;-69
2021/12/28 05:48:01;;;;;;;77.05;27.17;;;5.60;99.90;;;;;;5034487;28;20048;-69
2021/12/28 05:50:27;;;;;;;71.38;26.80;;;5.60;99.90;;;;;;5036301;28;20140;-68
2021/12/28 05:52:52;;;;;;;70.22;26.15;;;5.60;99.90;;;;;;5051551;28;20493;-71
2021/12/28 05:55:18;;;;;;;70.72;24.90;;;5.60;99.90;;;;;;5016474;28;20411;-69
2021/12/28 05:57:44;;;;;;;68.10;25.23;;;5.60;99.90;;;;;;5035150;28;20052;-70
2021/12/28 06:00:10;;;;;;;64.40;24.52;;;5.60;99.90;;;;;;5035391;28;20129;-69
2021/12/28 06:02:37;;;;;;;58.40;22.75;;;5.50;99.90;;;;;;5034208;28;20559;-68
2021/12/28 06:05:04;;;;;;;58.15;23.13;;;5.40;99.90;;;;;;5035190;28;20045;-70
2021/12/28 06:07:29;;;;;;;52.00;21.40;;;5.30;99.90;;;;;;5033393;28;20049;-70
2021/12/28 06:09:56;;;;;;;56.88;22.20;;;5.30;99.90;;;;;;5034400;28;20049;-70
2021/12/28 06:12:23;;;;;;;53.15;21.67;;;5.50;99.90;;;;;;5034604;28;20037;-70
2021/12/28 06:14:49;;;;;;;70.85;21.98;;;5.30;99.90;;;;;;5034915;28;20113;-70
2021/12/28 06:17:15;;;;;;;54.83;21.42;;;5.20;99.90;;;;;;5034355;28;20060;-69
2021/12/28 06:19:40;;;;;;;60.53;22.80;;;5.20;99.90;;;;;;5034303;28;20044;-70
2021/12/28 06:22:06;;;;;;;60.15;21.70;;;5.20;99.90;;;;;;5033981;28;20149;-71
2021/12/28 06:24:32;;;;;;;77.50;23.58;;;5.20;99.90;;;;;;5034894;28;20088;-71
2021/12/28 06:26:57;;;;;;;60.58;20.92;;;5.20;99.90;;;;;;5034782;28;20041;-71
2021/12/28 06:29:23;;;;;;;53.45;20.75;;;5.20;99.90;;;;;;5017858;28;20053;-70
2021/12/28 06:31:49;;;;;;;67.13;22.13;;;5.30;99.90;;;;;;5033068;28;20041;-71
2021/12/28 06:34:14;;;;;;;53.13;21.50;;;5.30;99.90;;;;;;5018064;28;20055;-71
2021/12/28 06:36:40;;;;;;;53.42;20.70;;;5.30;99.90;;;;;;5034071;28;20098;-69
2021/12/28 06:39:06;;;;;;;57.33;21.25;;;5.30;99.90;;;;;;5034070;28;20132;-69
2021/12/28 06:41:33;;;;;;;57.63;20.70;;;5.30;99.90;;;;;;5035414;28;20394;-69
2021/12/28 06:43:58;;;;;;;49.80;19.27;;;5.40;99.90;;;;;;5038927;28;20084;-70
2021/12/28 06:46:24;;;;;;;59.92;20.00;;;5.40;99.90;;;;;;5038549;28;20077;-70
2021/12/28 06:48:49;;;;;;;52.30;19.15;;;5.50;99.90;;;;;;5038070;28;20060;-69
2021/12/28 06:51:15;;;;;;;49.90;18.38;;;5.50;99.90;;;;;;5037365;28;20045;-69
2021/12/28 06:53:41;;;;;;;51.05;18.45;;;5.40;99.90;;;;;;5038464;28;20130;-71
2021/12/28 06:56:07;;;;;;;47.50;18.40;;;5.50;99.90;;;;;;5038295;28;20068;-70
2021/12/28 06:58:33;;;;;;;43.83;18.45;;;5.50;99.90;;;;;;5037245;28;20067;-68
2021/12/28 07:00:59;;;;;;;45.30;19.23;;;5.50;99.90;;;;;;5037603;28;20037;-70
2021/12/28 07:03:24;;;;;;;40.78;17.95;;;5.50;99.90;;;;;;5034040;28;20059;-71
2021/12/28 07:05:50;;;;;;;47.78;17.48;;;5.50;99.90;;;;;;5040257;28;20052;-70
2021/12/28 07:08:16;;;;;;;44.75;17.85;;;5.50;99.90;;;;;;5045379;28;20052;-69
2021/12/28 07:10:42;;;;;;;41.80;16.60;;;5.50;99.90;;;;;;5059263;28;20052;-68
2021/12/28 07:13:08;;;;;;;44.58;18.27;;;5.50;99.90;;;;;;5048674;28;20072;-70
2021/12/28 07:15:34;;;;;;;43.97;17.30;;;5.50;99.90;;;;;;5044019;28;20083;-71
2021/12/28 07:18:00;;;;;;;39.28;16.00;;;5.50;99.90;;;;;;5037997;28;20504;-69
2021/12/28 07:20:26;;;;;;;43.90;15.65;;;5.50;99.90;;;;;;5038244;28;20052;-69
2021/12/28 07:22:52;;;;;;;33.88;15.00;;;5.50;99.90;;;;;;5020806;28;20053;-71
2021/12/28 07:25:18;;;;;;;39.88;15.60;;;5.50;99.90;;;;;;5037060;28;20461;-70
2021/12/28 07:27:44;;;;;;;40.40;14.85;;;5.50;99.90;;;;;;5037713;28;20045;-70
2021/12/28 07:30:13;;;;;;;39.78;14.98;;;5.50;99.90;;;;;;5035716;28;20052;-70
2021/12/28 07:32:42;;;;;;;37.58;15.55;;;5.50;99.90;;;;;;5036845;28;20049;-69
2021/12/28 07:35:08;;;;;;;37.72;15.07;;;5.50;99.90;;;;;;5037668;28;20045;-69
2021/12/28 07:37:37;;;;;;;39.08;15.77;;;5.50;99.90;;;;;;5038977;28;20370;-71
2021/12/28 07:40:06;;;;;;;37.38;15.02;;;5.50;99.90;;;;;;5020424;28;20124;-70
2021/12/28 07:42:34;;;;;;;37.88;15.85;;;5.50;99.90;;;;;;5019812;28;20088;-69
2021/12/28 07:45:00;;;;;;;38.03;15.15;;;5.50;99.90;;;;;;5032694;28;20041;-70
2021/12/28 07:47:26;;;;;;;35.95;14.88;;;5.50;99.90;;;;;;5025215;28;20507;-69
2021/12/28 07:49:54;;;;;;;39.13;15.57;;;5.50;99.90;;;;;;5036706;28;20539;-70
2021/12/28 07:52:19;;;;;;;38.47;15.15;;;5.50;99.90;;;;;;5034225;28;20060;-69
2021/12/28 07:54:45;;;;;;;36.58;14.95;;;5.50;99.90;;;;;;5036779;28;20131;-70
2021/12/28 07:57:11;;;;;;;35.15;14.38;;;5.50;99.90;;;;;;5020305;28;20067;-70
2021/12/28 07:59:38;;;;;;;31.58;14.32;;;5.50;99.90;;;;;;5036647;28;20436;-70
2021/12/28 08:02:03;;;;;;;33.92;13.70;;;5.50;99.90;;;;;;5036580;28;20037;-70
2021/12/28 08:04:29;;;;;;;34.10;14.10;;;5.50;99.90;;;;;;5036429;28;20448;-68
2021/12/28 08:06:56;;;;;;;37.00;14.93;;;5.50;99.90;;;;;;5052813;28;20140;-71
2021/12/28 08:09:21;;;;;;;37.22;13.88;;;5.50;99.90;;;;;;5036631;28;20539;-69
2021/12/28 08:11:47;;;;;;;26.65;13.57;;;5.50;99.90;;;;;;5036746;28;20065;-67
2021/12/28 08:14:12;;;;;;;35.75;14.25;;;5.50;99.90;;;;;;5036786;28;20481;-68
2021/12/28 08:16:38;;;;;;;32.22;13.40;;;5.50;99.90;;;;;;5035853;28;20053;-68
2021/12/28 08:19:08;;;;;;;31.05;13.95;;;5.50;99.90;;;;;;5036934;28;20060;-69
2021/12/28 08:21:36;;;;;;;32.65;13.13;;;6.00;99.90;;;;;;5052603;28;20048;-71
2021/12/28 08:24:02;;;;;;;32.50;13.15;;;5.50;99.90;;;;;;5019355;28;20049;-69
2021/12/28 08:26:28;;;;;;;31.58;12.90;;;5.50;99.90;;;;;;5036372;28;20051;-71
2021/12/28 08:28:54;;;;;;;33.72;13.80;;;5.50;99.90;;;;;;5035494;28;20040;-70
2021/12/28 08:31:19;;;;;;;28.83;12.93;;;5.50;99.90;;;;;;5035264;28;20155;-69
2021/12/28 08:33:45;;;;;;;36.92;14.15;;;5.50;99.90;;;;;;5020306;28;20053;-71
2021/12/28 08:36:11;;;;;;;30.13;13.27;;;5.50;99.90;;;;;;5030619;28;20215;-71
2021/12/28 08:38:38;;;;;;;30.45;12.00;;;5.60;99.90;;;;;;5053173;28;20093;-70
2021/12/28 08:41:04;;;;;;;31.63;13.20;;;5.40;99.90;;;;;;5035750;28;20060;-69
2021/12/28 08:43:29;;;;;;;32.33;13.35;;;5.50;99.90;;;;;;5036047;28;20063;-70
2021/12/28 08:45:55;;;;;;;26.98;12.98;;;5.50;99.90;;;;;;5035572;28;20056;-71
2021/12/28 08:48:21;;;;;;;25.77;12.40;;;5.50;99.90;;;;;;5024744;28;20052;-70
2021/12/28 08:50:47;;;;;;;28.42;12.57;;;5.50;99.90;;;;;;5012691;28;20475;-69
2021/12/28 08:53:13;;;;;;;30.23;11.80;;;5.50;99.90;;;;;;5035106;28;20045;-69
2021/12/28 08:55:50;;;;;;;27.52;12.63;;;5.60;99.90;;;;;;5035856;28;20064;-70
2021/12/28 08:58:16;;;;;;;33.72;12.27;;;5.60;99.90;;;;;;5037184;28;20400;-70
2021/12/28 09:00:42;;;;;;;27.30;12.18;;;5.60;99.90;;;;;;5034579;28;20044;-71
2021/12/28 09:03:08;;;;;;;26.42;11.35;;;5.60;99.90;;;;;;5018670;28;20044;-70
2021/12/28 09:05:37;;;;;;;29.15;11.63;;;5.60;99.90;;;;;;5026227;28;20051;-71
2021/12/28 09:08:06;;;;;;;29.55;11.88;;;5.70;99.90;;;;;;5029610;28;20037;-71
2021/12/28 09:10:31;;;;;;;30.10;11.32;;;5.70;99.90;;;;;;5035307;28;20037;-71
2021/12/28 09:12:57;;;;;;;30.00;11.20;;;5.70;99.90;;;;;;5034944;28;20071;-68
2021/12/28 09:15:23;;;;;;;25.25;11.18;;;5.70;99.90;;;;;;5034715;28;20120;-71
2021/12/28 09:17:49;;;;;;;32.95;11.50;;;5.70;99.90;;;;;;5017586;28;20485;-69
2021/12/28 09:20:19;;;;;;;32.65;11.82;;;5.70;99.90;;;;;;5044656;28;20048;-70
2021/12/28 09:22:45;;;;;;;36.70;11.20;;;5.80;99.90;;;;;;5035419;28;20057;-71
2021/12/28 09:25:11;;;;;;;27.50;10.88;;;5.80;99.90;;;;;;5033499;28;20041;-70
2021/12/28 09:27:38;;;;;;;23.33;11.15;;;5.80;99.90;;;;;;5035022;28;20121;-69
2021/12/28 09:30:06;;;;;;;27.45;10.60;;;5.90;99.90;;;;;;5034587;28;20106;-70
2021/12/28 09:32:31;;;;;;;28.30;10.80;;;5.90;99.90;;;;;;5018402;28;20045;-71
2021/12/28 09:34:58;;;;;;;30.00;11.05;;;6.00;99.90;;;;;;5018854;28;20092;-71
2021/12/28 09:37:50;;;;;;;27.13;9.50;;;6.60;99.90;;;;;;5035322;28;20050;-68
2021/12/28 09:40:17;;;;;;;24.05;9.77;;;6.10;99.90;;;;;;5030808;28;20081;-69
2021/12/28 09:42:46;;;;;;;31.40;10.23;;;6.50;99.90;;;;;;5035335;28;20124;-71
2021/12/28 09:45:13;;;;;;;24.75;10.43;;;6.10;99.90;;;;;;5034838;28;20056;-71
2021/12/28 09:47:41;;;;;;;30.70;9.98;;;6.20;99.90;;;;;;5018461;28;20449;-70
2021/12/28 09:53:18;;;;;;;26.48;10.00;;;6.30;99.90;;;;;;5035425;28;20033;-69
2021/12/28 09:55:50;;;;;;;28.45;9.25;;;6.40;99.90;;;;;;5034712;28;20053;-67
2021/12/28 09:58:41;;;;;;;28.77;9.25;;;6.40;99.90;;;;;;5034421;28;20045;-70
2021/12/28 10:01:11;;;;;;;21.35;8.25;;;6.40;99.90;;;;;;5017539;28;20547;-69
2021/12/28 10:03:42;;;;;;;26.38;9.50;;;6.30;99.90;;;;;;5034739;28;20041;-68
2021/12/28 10:06:20;;;;;;;26.23;8.93;;;7.40;99.90;;;;;;5018230;28;20041;-71
2021/12/28 10:08:49;;;;;;;29.73;9.20;;;;;;;;;;5034674;28;20427;-71
2021/12/28 10:11:31;;;;;;;23.38;9.38;;;;;;;;;;5034452;28;20555;-71
2021/12/28 10:14:30;;;;;;;27.73;9.13;;;6.50;99.90;;;;;;5051118;28;20056;-71
2021/12/28 10:17:03;;;;;;;23.30;8.68;;;6.50;99.90;;;;;;4996567;28;20111;-72
2021/12/28 10:19:44;;;;;;;24.15;8.50;;;6.60;99.90;;;;;;5044208;28;20053;-70
2021/12/28 10:22:24;;;;;;;24.23;8.63;;;6.70;99.90;;;;;;4998538;28;20545;-70
2021/12/28 10:24:52;;;;;;;26.98;9.18;;;6.60;99.90;;;;;;5014762;28;20049;-71
2021/12/28 10:27:24;;;;;;;24.02;8.40;;;6.80;99.90;;;;;;5014675;28;20046;-71
2021/12/28 10:29:51;;;;;;;28.20;8.68;;;6.70;99.90;;;;;;5016167;28;20061;-69
2021/12/28 10:32:28;;;;;;;27.83;9.27;;;6.70;99.90;;;;;;5017717;28;20055;-71
2021/12/28 10:35:18;;;;;;;28.13;8.52;;;6.70;99.90;;;;;;5017826;28;20041;-70
2021/12/28 10:38:16;;;;;;;23.83;8.30;;;6.70;99.90;;;;;;5017493;28;20052;-72
2021/12/28 10:40:45;;;;;;;29.10;9.27;;;7.20;99.90;;;;;;5030391;28;20045;-70
2021/12/28 10:43:18;;;;;;;27.05;8.75;;;6.80;99.90;;;;;;5034454;28;20157;-70
2021/12/28 10:45:47;;;;;;;24.95;9.27;;;6.90;99.90;;;;;;5018107;28;20095;-71
2021/12/28 10:48:16;;;;;;;23.20;8.90;;;6.80;99.90;;;;;;5034235;28;20041;-70
2021/12/28 10:50:48;;;;;;;18.50;8.20;;;6.90;99.90;;;;;;5034664;28;20433;-71
2021/12/28 10:53:23;;;;;;;27.77;9.25;;;6.90;99.90;;;;;;5034582;28;20092;-69
2021/12/28 10:55:53;;;;;;;24.08;9.15;;;6.90;99.90;;;;;;5033446;28;20055;-69
2021/12/28 10:58:41;;;;;;;20.30;9.10;;;7.00;99.90;;;;;;5033742;28;20056;-70
2021/12/28 11:01:19;;;;;;;21.73;9.65;;;7.00;99.90;;;;;;5033995;28;20095;-73
2021/12/28 11:03:48;;;;;;;27.70;9.38;;;7.00;99.90;;;;;;5034280;28;20522;-72
2021/12/28 11:06:37;;;;;;;29.05;10.20;;;7.00;99.90;;;;;;5017776;28;20052;-71
2021/12/28 11:09:10;;;;;;;27.85;10.63;;;7.00;99.90;;;;;;5036964;28;20059;-71
2021/12/28 11:11:36;;;;;;;27.85;10.00;;;7.00;99.90;;;;;;5017688;28;20045;-72
2021/12/28 11:14:07;;;;;;;29.08;10.02;;;7.00;99.90;;;;;;5033811;28;20523;-71
2021/12/28 11:16:34;;;;;;;20.73;10.07;;;7.00;99.90;;;;;;5016709;28;20037;-72
2021/12/28 11:19:04;;;;;;;30.27;9.82;;;7.00;99.90;;;;;;5033879;28;20041;-71
2021/12/28 11:21:36;;;;;;;28.17;11.32;;;7.00;99.90;;;;;;5017871;28;20472;-70
2021/12/28 11:24:13;;;;;;;28.95;10.80;;;7.60;99.90;;;;;;5033339;28;20055;-71
2021/12/28 11:26:51;;;;;;;23.00;10.15;;;7.10;99.90;;;;;;5017535;28;20045;-71
2021/12/28 11:29:37;;;;;;;22.48;10.00;;;7.10;99.90;;;;;;5047773;28;20044;-71
2021/12/28 11:32:06;;;;;;;24.15;10.20;;;7.20;99.90;;;;;;5039589;28;22091;-71
2021/12/28 11:34:34;;;;;;;25.10;9.90;;;7.10;99.90;;;;;;5037775;28;20128;-72
2021/12/28 11:37:08;;;;;;;24.95;10.65;;;7.10;99.90;;;;;;5021186;28;20059;-72
2021/12/28 11:39:44;;;;;;;27.10;10.95;;;7.10;99.90;;;;;;5028764;28;20508;-71
2021/12/28 11:42:15;;;;;;;23.65;10.40;;;7.20;99.90;;;;;;5001276;28;20060;-70
2021/12/28 11:44:41;;;;;;;27.23;10.35;;;7.20;99.90;;;;;;5016680;28;20053;-70
2021/12/28 11:47:10;;;;;;;25.75;10.43;;;7.20;99.90;;;;;;5017166;28;20046;-70
2021/12/28 11:49:37;;;;;;;22.15;10.57;;;7.20;99.90;;;;;;5017501;28;20084;-72
2021/12/28 11:52:06;;;;;;;24.45;11.05;;;7.30;99.90;;;;;;5017268;28;20053;-70
2021/12/28 11:54:37;;;;;;;19.17;9.77;;;7.20;99.90;;;;;;5017432;28;20053;-70
2021/12/28 11:57:10;;;;;;;24.35;10.43;;;7.30;99.90;;;;;;5001569;28;20377;-71
2021/12/28 11:59:35;;;;;;;20.95;10.05;;;7.30;99.90;;;;;;5018087;28;20053;-70
2021/12/28 12:02:09;;;;;;;22.25;10.32;;;7.30;99.90;;;;;;5013157;28;20054;-70
2021/12/28 12:04:34;;;;;;;20.70;10.25;;;7.30;99.90;;;;;;5016970;28;20046;-72
2021/12/28 12:07:16;;;;;;;22.95;10.63;;;7.30;99.90;;;;;;5016892;28;20141;-71
2021/12/28 12:09:53;;;;;;;26.65;10.10;;;7.30;99.90;;;;;;5016124;28;20404;-70
2021/12/28 12:12:43;;;;;;;21.15;10.98;;;7.30;99.90;;;;;;5017167;28;20049;-69
2021/12/28 12:15:11;;;;;;;18.92;9.80;;;7.40;99.90;;;;;;5016315;28;20056;-72
2021/12/28 12:17:39;;;;;;;23.08;10.43;;;7.40;99.90;;;;;;4999071;28;20516;-72
2021/12/28 12:20:19;;;;;;;18.05;10.32;;;7.40;99.90;;;;;;5016970;28;20112;-70
2021/12/28 12:22:52;;;;;;;19.73;9.65;;;7.40;99.90;;;;;;5016206;28;20045;-72
2021/12/28 12:25:22;;;;;;;23.75;11.25;;;7.40;99.90;;;;;;5017288;28;20366;-70
2021/12/28 12:27:56;;;;;;;19.08;11.20;;;7.40;99.90;;;;;;4999980;28;20053;-71
2021/12/28 12:30:24;;;;;;;22.02;11.27;;;7.40;99.90;;;;;;5016942;28;20054;-72
2021/12/28 12:32:57;;;;;;;24.90;10.60;;;7.40;99.90;;;;;;5016107;28;20054;-70
2021/12/28 12:35:39;;;;;;;23.23;10.95;;;7.40;99.90;;;;;;5017243;28;20398;-72
2021/12/28 12:38:16;;;;;;;23.63;11.75;;;7.40;99.90;;;;;;5013464;28;20054;-72
2021/12/28 12:41:08;;;;;;;22.45;10.95;;;7.50;99.90;;;;;;5016555;28;20060;-72
2021/12/28 12:43:37;;;;;;;21.27;12.13;;;7.50;99.90;;;;;;5036713;28;20052;-70
2021/12/28 12:46:05;;;;;;;21.30;11.43;;;7.50;99.90;;;;;;5036502;28;20401;-73
2021/12/28 12:48:36;;;;;;;27.55;12.75;;;7.50;99.90;;;;;;5036543;28;20079;-71